createdAt,value
2023-03-20T00:00:04.597Z,94.78
2023-03-20T00:01:04.586Z,95.29
2023-03-20T00:02:04.568Z,95.03
2023-03-20T00:03:04.570Z,95.50
2023-03-20T00:04:04.669Z,95.40
2023-03-20T00:05:04.596Z,95.40
2023-03-20T00:06:04.521Z,95.29
2023-03-20T00:07:04.516Z,95.86
2023-03-20T00:08:04.511Z,95.50
2023-03-20T00:09:06.947Z,95.29
2023-03-20T00:10:04.478Z,95.34
2023-03-20T00:11:04.472Z,95.20
2023-03-20T00:12:04.476Z,94.99
2023-03-20T00:13:04.454Z,95.54
2023-03-20T00:14:04.459Z,95.61
2023-03-20T00:15:04.432Z,96.01
2023-03-20T00:16:04.427Z,95.81
2023-03-20T00:17:04.404Z,95.91
2023-03-20T00:18:04.413Z,95.81
2023-03-20T00:19:04.389Z,96.12
2023-03-20T00:20:04.369Z,95.29
2023-03-20T00:21:04.367Z,95.65
2023-03-20T00:22:04.344Z,95.65
2023-03-20T00:23:04.333Z,96.22
2023-03-20T00:24:04.333Z,96.22
2023-03-20T00:25:04.319Z,96.32
2023-03-20T00:26:04.299Z,96.22
2023-03-20T00:27:04.289Z,96.16
2023-03-20T00:28:04.297Z,96.16
2023-03-20T00:29:04.267Z,96.16
2023-03-20T00:30:04.275Z,96.06
2023-03-20T00:31:04.300Z,96.06
2023-03-20T00:32:04.240Z,96.32
2023-03-20T00:33:04.323Z,96.06
2023-03-20T00:34:04.220Z,96.16
2023-03-20T00:35:04.206Z,96.06
2023-03-20T00:36:04.248Z,96.06
2023-03-20T00:37:04.192Z,96.06
2023-03-20T00:38:04.167Z,96.06
2023-03-20T00:39:04.165Z,95.95
2023-03-20T00:40:04.150Z,96.26
2023-03-20T00:41:04.135Z,96.06
2023-03-20T00:42:04.153Z,96.06
2023-03-20T00:43:04.118Z,96.26
2023-03-20T00:44:04.116Z,96.20
2023-03-20T00:45:04.089Z,96.20
2023-03-20T00:46:04.084Z,96.41
2023-03-20T00:47:04.132Z,96.10
2023-03-20T00:48:04.063Z,96.72
2023-03-20T00:49:04.042Z,96.51
2023-03-20T00:50:04.026Z,96.72
2023-03-20T00:51:04.018Z,96.92
2023-03-20T00:52:04.016Z,97.13
2023-03-20T00:53:04.013Z,97.33
2023-03-20T00:54:03.983Z,97.33
2023-03-20T00:55:03.978Z,97.33
2023-03-20T00:56:03.962Z,97.33
2023-03-20T00:57:03.987Z,97.33
2023-03-20T00:58:03.937Z,97.23
2023-03-20T00:59:03.926Z,97.85
2023-03-20T01:00:03.935Z,97.23
2023-03-20T01:01:03.969Z,97.33
2023-03-20T01:02:03.942Z,97.54
2023-03-20T01:03:03.894Z,97.07
2023-03-20T01:04:03.878Z,97.69
2023-03-20T01:05:03.866Z,96.97
2023-03-20T01:06:03.847Z,97.28
2023-03-20T01:07:03.844Z,97.28
2023-03-20T01:08:03.849Z,97.23
2023-03-20T01:09:03.813Z,97.58
2023-03-20T01:10:03.808Z,98.05
2023-03-20T01:11:03.796Z,97.54
2023-03-20T01:12:03.915Z,97.23
2023-03-20T01:13:03.776Z,97.54
2023-03-20T01:14:03.772Z,97.23
2023-03-20T01:15:03.760Z,97.89
2023-03-20T01:16:03.845Z,97.64
2023-03-20T01:17:03.729Z,97.79
2023-03-20T01:18:03.707Z,97.89
2023-03-20T01:19:03.715Z,96.87
2023-03-20T01:20:03.699Z,96.82
2023-03-20T01:21:03.675Z,97.03
2023-03-20T01:22:03.665Z,96.92
2023-03-20T01:23:03.658Z,97.17
2023-03-20T01:24:03.658Z,97.23
2023-03-20T01:25:03.632Z,97.44
2023-03-20T01:26:03.658Z,97.85
2023-03-20T01:27:03.616Z,97.03
2023-03-20T01:28:03.593Z,97.17
2023-03-20T01:29:03.590Z,96.87
2023-03-20T01:30:03.580Z,97.44
2023-03-20T01:31:03.564Z,97.07
2023-03-20T01:32:03.590Z,97.38
2023-03-20T01:33:03.586Z,97.13
2023-03-20T01:34:03.548Z,97.23
2023-03-20T01:35:03.527Z,97.17
2023-03-20T01:36:03.558Z,97.28
2023-03-20T01:37:03.498Z,97.54
2023-03-20T01:38:03.484Z,97.07
2023-03-20T01:39:03.473Z,97.07
2023-03-20T01:40:03.472Z,97.38
2023-03-20T01:41:03.468Z,97.07
2023-03-20T01:42:03.449Z,97.85
2023-03-20T01:43:03.455Z,97.38
2023-03-20T01:44:03.557Z,97.13
2023-03-20T01:45:03.414Z,97.13
2023-03-20T01:46:03.523Z,97.33
2023-03-20T01:47:03.420Z,97.48
2023-03-20T01:48:03.390Z,97.38
2023-03-20T01:49:03.362Z,97.28
2023-03-20T01:50:03.356Z,97.48
2023-03-20T01:51:03.341Z,97.28
2023-03-20T01:52:03.432Z,97.28
2023-03-20T01:53:03.330Z,96.97
2023-03-20T01:54:03.302Z,97.38
2023-03-20T01:55:03.301Z,97.07
2023-03-20T01:56:03.277Z,97.48
2023-03-20T01:57:03.279Z,97.28
2023-03-20T01:58:05.218Z,97.28
2023-03-20T01:59:03.253Z,97.23
2023-03-20T02:00:03.243Z,97.44
2023-03-20T02:01:03.258Z,97.38
2023-03-20T02:02:03.228Z,97.48
2023-03-20T02:03:03.214Z,97.33
2023-03-20T02:04:03.220Z,97.23
2023-03-20T02:05:03.331Z,97.13
2023-03-20T02:06:03.172Z,96.82
2023-03-20T02:07:03.161Z,96.62
2023-03-20T02:08:03.156Z,96.41
2023-03-20T02:09:03.152Z,96.51
2023-03-20T02:10:03.138Z,96.41
2023-03-20T02:11:03.139Z,96.51
2023-03-20T02:12:03.100Z,96.51
2023-03-20T02:13:03.096Z,96.41
2023-03-20T02:14:03.106Z,96.41
2023-03-20T02:15:03.075Z,96.41
2023-03-20T02:16:03.070Z,96.62
2023-03-20T02:17:03.107Z,96.35
2023-03-20T02:18:03.033Z,96.51
2023-03-20T02:19:03.030Z,96.41
2023-03-20T02:20:03.043Z,96.62
2023-03-20T02:21:02.999Z,96.20
2023-03-20T02:22:03.010Z,96.20
2023-03-20T02:23:02.988Z,96.15
2023-03-20T02:24:02.978Z,96.25
2023-03-20T02:25:02.973Z,96.15
2023-03-20T02:26:02.946Z,96.56
2023-03-20T02:27:02.942Z,96.56
2023-03-20T02:28:02.927Z,96.45
2023-03-20T02:29:02.908Z,96.45
2023-03-20T02:30:02.920Z,96.25
2023-03-20T02:31:02.932Z,96.45
2023-03-20T02:32:02.872Z,96.35
2023-03-20T02:33:02.921Z,96.20
2023-03-20T02:34:02.854Z,96.35
2023-03-20T02:35:02.847Z,95.53
2023-03-20T02:36:02.912Z,95.84
2023-03-20T02:37:02.823Z,96.04
2023-03-20T02:38:02.811Z,95.84
2023-03-20T02:39:02.792Z,95.94
2023-03-20T02:40:02.787Z,95.94
2023-03-20T02:41:02.790Z,95.94
2023-03-20T02:42:02.763Z,95.94
2023-03-20T02:43:02.750Z,95.94
2023-03-20T02:44:02.756Z,96.04
2023-03-20T02:45:02.733Z,95.84
2023-03-20T02:46:02.828Z,95.74
2023-03-20T02:47:02.709Z,96.15
2023-03-20T02:48:02.694Z,95.94
2023-03-20T02:49:02.686Z,95.94
2023-03-20T02:50:02.674Z,96.04
2023-03-20T02:51:02.659Z,95.74
2023-03-20T02:52:02.690Z,95.74
2023-03-20T02:53:02.651Z,95.94
2023-03-20T02:54:02.628Z,95.84
2023-03-20T02:55:02.612Z,95.90
2023-03-20T02:56:02.613Z,95.74
2023-03-20T02:57:02.592Z,95.53
2023-03-20T02:58:02.583Z,95.32
2023-03-20T02:59:02.587Z,95.64
2023-03-20T03:00:02.582Z,95.32
2023-03-20T03:01:02.555Z,95.43
2023-03-20T03:02:02.555Z,95.64
2023-03-20T03:03:02.594Z,95.64
2023-03-20T03:04:02.520Z,94.71
2023-03-20T03:05:02.501Z,95.12
2023-03-20T03:06:02.502Z,95.43
2023-03-20T03:07:02.491Z,94.30
2023-03-20T03:08:02.504Z,94.55
2023-03-20T03:09:02.453Z,94.65
2023-03-20T03:10:02.456Z,94.30
2023-03-20T03:11:02.447Z,94.10
2023-03-20T03:12:02.424Z,93.99
2023-03-20T03:13:02.452Z,94.10
2023-03-20T03:14:02.402Z,94.10
2023-03-20T03:15:02.406Z,94.04
2023-03-20T03:16:02.403Z,93.79
2023-03-20T03:17:02.363Z,93.99
2023-03-20T03:18:02.367Z,93.59
2023-03-20T03:19:02.353Z,93.93
2023-03-20T03:20:02.365Z,93.99
2023-03-20T03:21:02.357Z,93.93
2023-03-20T03:22:02.312Z,93.93
2023-03-20T03:23:02.320Z,93.83
2023-03-20T03:24:02.311Z,94.04
2023-03-20T03:25:02.304Z,93.93
2023-03-20T03:26:02.267Z,94.04
2023-03-20T03:27:02.254Z,94.45
2023-03-20T03:28:02.243Z,94.24
2023-03-20T03:29:02.240Z,94.34
2023-03-20T03:30:02.224Z,94.04
2023-03-20T03:31:02.266Z,94.04
2023-03-20T03:32:02.207Z,94.45
2023-03-20T03:33:02.273Z,94.34
2023-03-20T03:34:02.189Z,94.34
2023-03-20T03:35:02.189Z,94.55
2023-03-20T03:36:02.181Z,94.76
2023-03-20T03:37:02.150Z,94.76
2023-03-20T03:38:02.136Z,94.55
2023-03-20T03:39:02.134Z,94.14
2023-03-20T03:40:02.136Z,94.34
2023-03-20T03:41:02.098Z,94.45
2023-03-20T03:42:02.088Z,94.55
2023-03-20T03:43:02.085Z,94.76
2023-03-20T03:44:02.092Z,94.45
2023-03-20T03:45:02.050Z,94.24
2023-03-20T03:46:02.041Z,94.04
2023-03-20T03:47:02.088Z,94.24
2023-03-20T03:48:02.030Z,94.45
2023-03-20T03:49:02.003Z,93.83
2023-03-20T03:50:02.030Z,93.63
2023-03-20T03:51:01.993Z,94.24
2023-03-20T03:52:01.987Z,93.93
2023-03-20T03:53:01.961Z,93.63
2023-03-20T03:54:01.958Z,93.73
2023-03-20T03:55:01.948Z,93.73
2023-03-20T03:56:02.097Z,93.67
2023-03-20T03:57:01.936Z,93.67
2023-03-20T03:58:01.917Z,93.57
2023-03-20T03:59:01.902Z,93.93
2023-03-20T04:00:08.975Z,93.77
2023-03-20T04:01:01.881Z,94.08
2023-03-20T04:02:01.915Z,94.24
2023-03-20T04:03:01.857Z,94.14
2023-03-20T04:04:03.759Z,93.87
2023-03-20T04:05:01.902Z,94.08
2023-03-20T04:06:01.819Z,93.87
2023-03-20T04:07:01.825Z,94.39
2023-03-20T04:08:01.804Z,94.34
2023-03-20T04:09:01.797Z,94.39
2023-03-20T04:10:01.906Z,94.08
2023-03-20T04:11:01.767Z,93.98
2023-03-20T04:12:01.808Z,94.80
2023-03-20T04:13:01.759Z,94.59
2023-03-20T04:14:01.746Z,94.39
2023-03-20T04:15:03.256Z,94.39
2023-03-20T04:16:01.761Z,94.49
2023-03-20T04:17:01.719Z,94.59
2023-03-20T04:18:01.702Z,94.49
2023-03-20T04:19:01.712Z,94.59
2023-03-20T04:20:01.714Z,94.49
2023-03-20T04:21:01.664Z,94.59
2023-03-20T04:22:01.671Z,94.49
2023-03-20T04:23:01.660Z,94.49
2023-03-20T04:24:01.627Z,94.70
2023-03-20T04:25:01.608Z,94.59
2023-03-20T04:26:01.604Z,94.80
2023-03-20T04:27:01.595Z,94.49
2023-03-20T04:28:01.604Z,94.39
2023-03-20T04:29:01.577Z,94.59
2023-03-20T04:30:01.553Z,94.59
2023-03-20T04:31:01.550Z,94.18
2023-03-20T04:32:01.535Z,94.90
2023-03-20T04:33:01.527Z,95.01
2023-03-20T04:34:01.518Z,94.80
2023-03-20T04:35:01.495Z,94.70
2023-03-20T04:36:01.584Z,94.49
2023-03-20T04:37:01.482Z,94.49
2023-03-20T04:38:01.476Z,94.49
2023-03-20T04:39:01.555Z,94.49
2023-03-20T04:40:01.450Z,94.80
2023-03-20T04:41:01.434Z,94.70
2023-03-20T04:42:01.429Z,94.49
2023-03-20T04:43:01.436Z,94.49
2023-03-20T04:44:01.425Z,94.49
2023-03-20T04:45:01.389Z,94.90
2023-03-20T04:46:01.460Z,95.10
2023-03-20T04:47:01.366Z,94.70
2023-03-20T04:48:01.354Z,94.39
2023-03-20T04:49:01.352Z,94.59
2023-03-20T04:50:01.338Z,94.80
2023-03-20T04:51:01.326Z,94.49
2023-03-20T04:52:01.302Z,94.59
2023-03-20T04:53:01.291Z,94.70
2023-03-20T04:54:01.300Z,95.01
2023-03-20T04:55:01.268Z,95.36
2023-03-20T04:56:02.168Z,95.42
2023-03-20T04:57:01.273Z,95.01
2023-03-20T04:58:01.244Z,94.90
2023-03-20T04:59:01.251Z,94.39
2023-03-20T05:00:01.231Z,94.54
2023-03-20T05:01:01.260Z,95.15
2023-03-20T05:02:01.191Z,94.80
2023-03-20T05:03:01.181Z,95.10
2023-03-20T05:04:01.245Z,94.64
2023-03-20T05:05:01.164Z,94.54
2023-03-20T05:06:01.150Z,94.49
2023-03-20T05:07:01.132Z,94.59
2023-03-20T05:08:01.126Z,94.29
2023-03-20T05:09:01.124Z,94.39
2023-03-20T05:10:01.105Z,94.39
2023-03-20T05:11:01.124Z,94.08
2023-03-20T05:12:01.078Z,93.77
2023-03-20T05:13:01.097Z,93.57
2023-03-20T05:14:01.061Z,93.67
2023-03-20T05:15:01.072Z,94.08
2023-03-20T05:16:01.055Z,92.79
2023-03-20T05:17:01.081Z,92.79
2023-03-20T05:18:01.022Z,93.10
2023-03-20T05:19:00.996Z,92.07
2023-03-20T05:20:01.004Z,92.07
2023-03-20T05:21:00.982Z,92.27
2023-03-20T05:22:00.965Z,92.38
2023-03-20T05:23:00.975Z,92.27
2023-03-20T05:24:00.940Z,91.66
2023-03-20T05:25:00.930Z,92.07
2023-03-20T05:26:00.916Z,91.97
2023-03-20T05:27:00.939Z,91.45
2023-03-20T05:28:00.900Z,91.35
2023-03-20T05:29:00.889Z,91.35
2023-03-20T05:30:00.898Z,90.83
2023-03-20T05:31:00.924Z,91.04
2023-03-20T05:32:00.871Z,90.59
2023-03-20T05:33:00.887Z,91.35
2023-03-20T05:34:00.827Z,91.55
2023-03-20T05:35:00.842Z,91.04
2023-03-20T05:36:00.866Z,91.04
2023-03-20T05:37:00.789Z,91.35
2023-03-20T05:38:00.788Z,91.08
2023-03-20T05:39:00.774Z,92.21
2023-03-20T05:40:00.795Z,91.76
2023-03-20T05:41:00.802Z,91.76
2023-03-20T05:42:00.737Z,91.97
2023-03-20T05:43:00.728Z,91.86
2023-03-20T05:44:00.722Z,91.76
2023-03-20T05:45:00.700Z,92.42
2023-03-20T05:46:00.933Z,92.17
2023-03-20T05:47:00.701Z,92.17
2023-03-20T05:48:00.691Z,92.27
2023-03-20T05:49:00.658Z,92.17
2023-03-20T05:50:00.651Z,92.38
2023-03-20T05:51:00.679Z,92.79
2023-03-20T05:52:00.699Z,92.99
2023-03-20T05:53:00.608Z,93.10
2023-03-20T05:54:00.674Z,93.30
2023-03-20T05:55:00.594Z,93.10
2023-03-20T05:56:00.662Z,93.10
2023-03-20T05:57:00.615Z,93.61
2023-03-20T05:58:00.573Z,93.51
2023-03-20T05:59:00.548Z,93.61
2023-03-20T06:00:00.574Z,93.71
2023-03-20T06:01:00.523Z,94.12
2023-03-20T06:02:00.510Z,94.12
2023-03-20T06:03:00.610Z,93.61
2023-03-20T06:04:00.629Z,93.61
2023-03-20T06:05:00.478Z,93.82
2023-03-20T06:06:00.485Z,93.10
2023-03-20T06:07:00.459Z,93.20
2023-03-20T06:08:00.452Z,93.04
2023-03-20T06:09:00.430Z,93.14
2023-03-20T06:10:00.433Z,92.52
2023-03-20T06:11:00.402Z,93.24
2023-03-20T06:12:00.543Z,93.04
2023-03-20T06:13:00.385Z,93.04
2023-03-20T06:14:00.380Z,92.83
2023-03-20T06:15:00.369Z,93.04
2023-03-20T06:16:00.426Z,93.04
2023-03-20T06:17:00.350Z,92.93
2023-03-20T06:18:00.336Z,93.04
2023-03-20T06:19:00.325Z,93.14
2023-03-20T06:20:00.335Z,92.83
2023-03-20T06:21:00.302Z,92.83
2023-03-20T06:22:00.288Z,93.04
2023-03-20T06:23:00.269Z,92.93
2023-03-20T06:24:00.265Z,93.24
2023-03-20T06:25:00.272Z,92.73
2023-03-20T06:26:00.239Z,92.52
2023-03-20T06:27:00.281Z,92.21
2023-03-20T06:28:00.220Z,92.42
2023-03-20T06:29:00.208Z,92.21
2023-03-20T06:30:00.212Z,92.42
2023-03-20T06:31:00.231Z,92.21
2023-03-20T06:32:00.344Z,92.11
2023-03-20T06:33:00.249Z,92.11
2023-03-20T06:34:00.154Z,92.01
2023-03-20T06:35:00.141Z,91.80
2023-03-20T06:36:00.259Z,91.80
2023-03-20T06:37:00.205Z,92.11
2023-03-20T06:38:00.112Z,91.80
2023-03-20T06:39:00.110Z,91.91
2023-03-20T06:40:00.110Z,92.01
2023-03-20T06:41:00.118Z,92.32
2023-03-20T06:42:00.057Z,92.01
2023-03-20T06:43:00.079Z,92.01
2023-03-20T06:44:00.092Z,91.49
2023-03-20T06:45:00.045Z,91.60
2023-03-20T06:46:00.016Z,91.39
2023-03-20T06:47:00.012Z,91.39
2023-03-20T06:47:59.986Z,91.19
2023-03-20T06:48:59.971Z,91.29
2023-03-20T06:49:59.975Z,90.67
2023-03-20T06:50:59.957Z,91.19
2023-03-20T06:51:59.959Z,90.47
2023-03-20T06:52:59.943Z,90.47
2023-03-20T06:53:59.923Z,91.08
2023-03-20T06:54:59.926Z,90.78
2023-03-20T06:55:59.895Z,90.47
2023-03-20T06:56:59.896Z,91.08
2023-03-20T06:57:59.876Z,90.73
2023-03-20T06:58:59.870Z,90.53
2023-03-20T06:59:59.852Z,90.73
2023-03-20T07:00:59.849Z,89.60
2023-03-20T07:01:59.971Z,89.91
2023-03-20T07:03:02.099Z,90.01
2023-03-20T07:03:59.802Z,89.95
2023-03-20T07:04:59.827Z,89.91
2023-03-20T07:05:59.818Z,88.98
2023-03-20T07:06:59.778Z,89.70
2023-03-20T07:07:59.789Z,89.81
2023-03-20T07:08:59.761Z,89.29
2023-03-20T07:09:59.747Z,89.09
2023-03-20T07:10:59.755Z,88.89
2023-03-20T07:11:59.751Z,89.09
2023-03-20T07:12:59.714Z,89.09
2023-03-20T07:13:59.714Z,88.78
2023-03-20T07:14:59.693Z,88.78
2023-03-20T07:16:04.404Z,88.68
2023-03-20T07:17:00.740Z,88.68
2023-03-20T07:17:59.649Z,88.57
2023-03-20T07:18:59.653Z,88.82
2023-03-20T07:19:59.626Z,88.78
2023-03-20T07:20:59.634Z,88.78
2023-03-20T07:21:59.726Z,88.89
2023-03-20T07:22:59.604Z,88.06
2023-03-20T07:23:59.605Z,88.47
2023-03-20T07:24:59.578Z,88.27
2023-03-20T07:25:59.568Z,87.96
2023-03-20T07:26:59.605Z,88.06
2023-03-20T07:27:59.540Z,87.45
2023-03-20T07:28:59.534Z,87.45
2023-03-20T07:29:59.521Z,87.85
2023-03-20T07:30:59.508Z,87.45
2023-03-20T07:31:59.498Z,87.24
2023-03-20T07:32:59.539Z,87.34
2023-03-20T07:33:59.476Z,87.45
2023-03-20T07:34:59.461Z,87.45
2023-03-20T07:35:59.467Z,87.20
2023-03-20T07:36:59.444Z,86.93
2023-03-20T07:37:59.435Z,87.13
2023-03-20T07:38:59.439Z,86.83
2023-03-20T07:39:59.434Z,86.83
2023-03-20T07:40:59.393Z,86.99
2023-03-20T07:41:59.378Z,86.83
2023-03-20T07:42:59.382Z,86.42
2023-03-20T07:43:59.386Z,86.93
2023-03-20T07:44:59.354Z,86.38
2023-03-20T07:45:59.385Z,86.62
2023-03-20T07:46:59.442Z,87.10
2023-03-20T07:47:59.349Z,86.99
2023-03-20T07:48:59.341Z,86.48
2023-03-20T07:49:59.296Z,86.58
2023-03-20T07:50:59.287Z,86.17
2023-03-20T07:51:59.264Z,85.86
2023-03-20T07:52:59.265Z,86.38
2023-03-20T07:53:59.244Z,86.07
2023-03-20T07:54:59.236Z,86.79
2023-03-20T07:55:59.232Z,86.07
2023-03-20T07:56:59.211Z,86.27
2023-03-20T07:57:59.230Z,85.21
2023-03-20T07:58:59.196Z,85.46
2023-03-20T07:59:59.170Z,85.52
2023-03-20T08:00:59.170Z,85.52
2023-03-20T08:01:59.384Z,84.69
2023-03-20T08:02:59.366Z,85.21
2023-03-20T08:03:59.310Z,84.90
2023-03-20T08:04:59.275Z,84.69
2023-03-20T08:05:59.111Z,83.70
2023-03-20T08:06:59.114Z,82.84
2023-03-20T08:07:59.076Z,83.87
2023-03-20T08:08:59.076Z,84.08
2023-03-20T08:09:59.055Z,84.80
2023-03-20T08:10:59.052Z,84.80
2023-03-20T08:11:59.175Z,83.87
2023-03-20T08:12:59.048Z,83.46
2023-03-20T08:13:59.022Z,83.46
2023-03-20T08:14:59.007Z,83.67
2023-03-20T08:15:58.991Z,83.05
2023-03-20T08:17:12.885Z,82.64
2023-03-20T08:17:59.977Z,83.36
2023-03-20T08:18:58.965Z,82.95
2023-03-20T08:19:59.194Z,82.43
2023-03-20T08:20:58.975Z,82.03
2023-03-20T08:21:58.940Z,82.50
2023-03-20T08:22:58.927Z,82.84
2023-03-20T08:23:58.907Z,83.36
2023-03-20T08:24:58.909Z,83.12
2023-03-20T08:25:58.894Z,83.01
2023-03-20T08:26:58.967Z,82.60
2023-03-20T08:27:58.880Z,82.15
2023-03-20T08:28:58.857Z,81.54
2023-03-20T08:29:59.002Z,81.74
2023-03-20T08:30:58.876Z,81.74
2023-03-20T08:31:58.812Z,81.02
2023-03-20T08:32:58.829Z,80.82
2023-03-20T08:33:58.793Z,80.51
2023-03-20T08:34:58.786Z,80.00
2023-03-20T08:35:58.838Z,80.00
2023-03-20T08:36:58.941Z,80.62
2023-03-20T08:37:58.744Z,80.00
2023-03-20T08:38:58.738Z,80.62
2023-03-20T08:39:58.737Z,80.21
2023-03-20T08:40:58.717Z,80.00
2023-03-20T08:42:00.908Z,80.00
2023-03-20T08:42:58.708Z,80.82
2023-03-20T08:43:58.710Z,80.92
2023-03-20T08:44:58.679Z,80.92
2023-03-20T08:45:58.710Z,79.80
2023-03-20T08:46:58.729Z,80.31
2023-03-20T08:47:58.634Z,81.02
2023-03-20T08:48:58.645Z,81.13
2023-03-20T08:49:58.605Z,80.88
2023-03-20T08:50:58.615Z,80.58
2023-03-20T08:51:58.622Z,80.07
2023-03-20T08:52:58.585Z,79.75
2023-03-20T08:53:58.562Z,79.45
2023-03-20T08:54:58.596Z,79.24
2023-03-20T08:55:58.554Z,79.90
2023-03-20T08:56:58.633Z,80.47
2023-03-20T08:57:58.526Z,79.90
2023-03-20T08:58:58.518Z,79.90
2023-03-20T08:59:58.513Z,79.86
2023-03-20T09:00:58.483Z,80.17
2023-03-20T09:01:58.571Z,79.75
2023-03-20T09:02:58.538Z,79.45
2023-03-20T09:03:58.458Z,79.49
2023-03-20T09:04:58.448Z,79.55
2023-03-20T09:05:58.424Z,79.45
2023-03-20T09:06:58.416Z,79.49
2023-03-20T09:07:58.419Z,79.35
2023-03-20T09:08:58.403Z,79.24
2023-03-20T09:09:58.390Z,79.66
2023-03-20T09:10:58.375Z,79.11
2023-03-20T09:11:58.357Z,78.02
2023-03-20T09:12:58.357Z,78.63
2023-03-20T09:13:58.346Z,78.02
2023-03-20T09:14:59.234Z,78.02
2023-03-20T09:15:58.445Z,78.32
2023-03-20T09:16:58.399Z,79.00
2023-03-20T09:17:58.287Z,79.41
2023-03-20T09:18:58.291Z,79.41
2023-03-20T09:19:58.277Z,77.36
2023-03-20T09:20:58.256Z,77.16
2023-03-20T09:21:58.254Z,77.29
2023-03-20T09:22:58.245Z,77.09
2023-03-20T09:23:58.222Z,76.75
2023-03-20T09:24:58.239Z,76.54
2023-03-20T09:25:58.211Z,76.54
2023-03-20T09:26:58.192Z,76.54
2023-03-20T09:27:58.178Z,76.03
2023-03-20T09:28:58.169Z,75.93
2023-03-20T09:29:58.269Z,76.95
2023-03-20T09:30:58.227Z,76.75
2023-03-20T09:31:58.263Z,76.44
2023-03-20T09:32:58.230Z,76.44
2023-03-20T09:33:58.110Z,76.92
2023-03-20T09:34:58.102Z,75.99
2023-03-20T09:35:58.117Z,76.20
2023-03-20T09:36:58.084Z,75.38
2023-03-20T09:37:58.113Z,75.07
2023-03-20T09:38:58.060Z,75.07
2023-03-20T09:39:58.065Z,75.38
2023-03-20T09:40:58.040Z,75.69
2023-03-20T09:41:58.054Z,76.10
2023-03-20T09:42:58.015Z,76.10
2023-03-20T09:43:58.016Z,76.17
2023-03-20T09:44:57.996Z,75.18
2023-03-20T09:45:57.990Z,74.87
2023-03-20T09:47:12.472Z,74.56
2023-03-20T09:47:58.975Z,74.26
2023-03-20T09:48:57.956Z,74.02
2023-03-20T09:49:57.957Z,74.87
2023-03-20T09:50:57.922Z,75.14
2023-03-20T09:51:57.909Z,75.24
2023-03-20T09:52:57.903Z,74.94
2023-03-20T09:54:01.080Z,74.43
2023-03-20T09:54:57.875Z,74.05
2023-03-20T09:55:57.907Z,73.64
2023-03-20T09:56:57.852Z,74.56
2023-03-20T09:57:57.855Z,74.73
2023-03-20T09:58:57.832Z,74.43
2023-03-20T09:59:57.840Z,73.61
2023-03-20T10:01:04.931Z,73.50
2023-03-20T10:01:57.894Z,73.61
2023-03-20T10:02:57.797Z,73.54
2023-03-20T10:03:57.798Z,73.91
2023-03-20T10:04:57.764Z,73.91
2023-03-20T10:05:57.771Z,74.11
2023-03-20T10:06:57.765Z,73.47
2023-03-20T10:07:57.735Z,73.88
2023-03-20T10:08:57.717Z,73.78
2023-03-20T10:09:57.730Z,74.39
2023-03-20T10:10:57.707Z,74.39
2023-03-20T10:11:57.765Z,73.98
2023-03-20T10:12:57.698Z,73.27
2023-03-20T10:13:57.675Z,74.39
2023-03-20T10:14:57.660Z,73.36
2023-03-20T10:15:57.674Z,73.88
2023-03-20T10:16:57.642Z,73.88
2023-03-20T10:17:57.616Z,72.45
2023-03-20T10:18:57.611Z,73.10
2023-03-20T10:19:57.680Z,73.10
2023-03-20T10:20:57.582Z,73.23
2023-03-20T10:21:57.571Z,72.69
2023-03-20T10:22:57.568Z,73.10
2023-03-20T10:23:57.547Z,73.71
2023-03-20T10:24:57.546Z,74.19
2023-03-20T10:25:57.565Z,74.15
2023-03-20T10:26:57.542Z,73.74
2023-03-20T10:27:57.515Z,72.92
2023-03-20T10:28:57.499Z,73.13
2023-03-20T10:29:57.490Z,73.13
2023-03-20T10:30:57.470Z,72.41
2023-03-20T10:31:57.467Z,73.85
2023-03-20T10:32:57.526Z,73.64
2023-03-20T10:33:57.443Z,73.13
2023-03-20T10:34:57.462Z,73.54
2023-03-20T10:35:57.465Z,73.03
2023-03-20T10:36:57.405Z,72.45
2023-03-20T10:37:57.403Z,71.94
2023-03-20T10:38:57.387Z,72.34
2023-03-20T10:39:57.384Z,71.62
2023-03-20T10:40:57.358Z,71.73
2023-03-20T10:41:57.346Z,72.24
2023-03-20T10:42:57.337Z,72.62
2023-03-20T10:43:57.348Z,71.94
2023-03-20T10:44:57.325Z,71.19
2023-03-20T10:45:57.300Z,71.29
2023-03-20T10:46:57.342Z,70.78
2023-03-20T10:47:57.337Z,71.19
2023-03-20T10:48:57.267Z,71.39
2023-03-20T10:49:57.269Z,71.12
2023-03-20T10:50:57.242Z,70.57
2023-03-20T10:51:57.263Z,70.91
2023-03-20T10:52:57.226Z,71.29
2023-03-20T10:53:57.212Z,71.83
2023-03-20T10:54:57.214Z,72.04
2023-03-20T10:55:57.189Z,71.90
2023-03-20T10:56:57.192Z,72.31
2023-03-20T10:57:57.161Z,70.88
2023-03-20T10:58:57.153Z,71.59
2023-03-20T10:59:57.155Z,71.70
2023-03-20T11:00:57.187Z,72.11
2023-03-20T11:01:57.130Z,71.70
2023-03-20T11:02:57.110Z,71.49
2023-03-20T11:03:57.192Z,70.16
2023-03-20T11:04:57.091Z,70.26
2023-03-20T11:06:08.916Z,70.16
2023-03-20T11:06:58.074Z,70.47
2023-03-20T11:07:57.076Z,70.43
2023-03-20T11:08:57.053Z,71.15
2023-03-20T11:09:57.036Z,71.25
2023-03-20T11:10:58.350Z,70.23
2023-03-20T11:11:57.020Z,69.24
2023-03-20T11:12:56.993Z,69.24
2023-03-20T11:13:57.005Z,70.26
2023-03-20T11:14:56.981Z,70.26
2023-03-20T11:15:56.984Z,70.57
2023-03-20T11:16:57.020Z,71.08
2023-03-20T11:17:56.948Z,70.75
2023-03-20T11:18:56.937Z,70.34
2023-03-20T11:19:56.923Z,69.82
2023-03-20T11:20:56.910Z,69.21
2023-03-20T11:21:56.947Z,69.24
2023-03-20T11:22:56.901Z,69.45
2023-03-20T11:23:56.901Z,69.75
2023-03-20T11:24:56.865Z,70.06
2023-03-20T11:25:56.860Z,70.40
2023-03-20T11:26:56.841Z,70.61
2023-03-20T11:27:56.847Z,71.12
2023-03-20T11:28:56.821Z,70.71
2023-03-20T11:29:56.822Z,70.81
2023-03-20T11:31:04.458Z,70.50
2023-03-20T11:31:57.838Z,70.71
2023-03-20T11:32:56.837Z,71.12
2023-03-20T11:33:56.776Z,71.42
2023-03-20T11:34:56.755Z,71.62
2023-03-20T11:35:56.888Z,71.15
2023-03-20T11:37:09.352Z,70.84
2023-03-20T11:37:57.718Z,71.25
2023-03-20T11:38:56.709Z,71.66
2023-03-20T11:39:56.719Z,71.86
2023-03-20T11:40:56.684Z,71.62
2023-03-20T11:41:56.675Z,71.56
2023-03-20T11:42:56.679Z,71.77
2023-03-20T11:43:56.653Z,71.25
2023-03-20T11:44:56.645Z,71.45
2023-03-20T11:45:56.672Z,71.56
2023-03-20T11:46:56.613Z,71.56
2023-03-20T11:47:56.630Z,71.77
2023-03-20T11:48:56.591Z,71.97
2023-03-20T11:49:56.584Z,72.45
2023-03-20T11:50:56.569Z,73.20
2023-03-20T11:51:56.561Z,72.28
2023-03-20T11:52:56.542Z,71.86
2023-03-20T11:53:56.549Z,71.86
2023-03-20T11:54:56.525Z,72.11
2023-03-20T11:55:56.538Z,73.03
2023-03-20T11:56:56.507Z,73.30
2023-03-20T11:57:56.494Z,72.99
2023-03-20T11:58:56.496Z,72.92
2023-03-20T11:59:56.475Z,73.20
2023-03-20T12:00:56.456Z,73.10
2023-03-20T12:01:56.452Z,73.33
2023-03-20T12:02:56.438Z,73.74
2023-03-20T12:03:56.556Z,73.03
2023-03-20T12:04:56.431Z,74.26
2023-03-20T12:05:56.408Z,73.64
2023-03-20T12:06:56.387Z,74.08
2023-03-20T12:07:56.381Z,75.18
2023-03-20T12:08:56.392Z,74.90
2023-03-20T12:09:56.364Z,75.28
2023-03-20T12:10:56.347Z,75.28
2023-03-20T12:11:58.414Z,76.24
2023-03-20T12:12:56.327Z,75.62
2023-03-20T12:13:56.332Z,75.93
2023-03-20T12:14:56.306Z,75.73
2023-03-20T12:15:56.346Z,76.03
2023-03-20T12:16:56.276Z,76.34
2023-03-20T12:17:56.277Z,76.37
2023-03-20T12:18:56.261Z,76.14
2023-03-20T12:19:56.273Z,76.58
2023-03-20T12:20:56.235Z,76.68
2023-03-20T12:21:56.238Z,77.06
2023-03-20T12:22:56.208Z,78.08
2023-03-20T12:23:56.206Z,77.16
2023-03-20T12:24:56.210Z,77.36
2023-03-20T12:25:56.180Z,77.67
2023-03-20T12:26:56.168Z,77.98
2023-03-20T12:27:56.174Z,78.12
2023-03-20T12:28:56.146Z,77.26
2023-03-20T12:29:56.132Z,77.91
2023-03-20T12:30:56.189Z,77.20
2023-03-20T12:31:56.121Z,77.61
2023-03-20T12:32:56.139Z,77.91
2023-03-20T12:33:56.089Z,77.91
2023-03-20T12:34:56.093Z,77.61
2023-03-20T12:35:56.104Z,78.02
2023-03-20T12:36:56.065Z,77.91
2023-03-20T12:37:56.041Z,78.53
2023-03-20T12:38:56.042Z,78.83
2023-03-20T12:39:56.037Z,78.94
2023-03-20T12:40:56.014Z,79.45
2023-03-20T12:41:56.014Z,79.14
2023-03-20T12:42:55.996Z,79.45
2023-03-20T12:43:56.004Z,79.41
2023-03-20T12:44:56.003Z,79.24
2023-03-20T12:45:55.952Z,79.86
2023-03-20T12:46:56.088Z,80.03
2023-03-20T12:47:55.929Z,80.17
2023-03-20T12:48:55.939Z,79.72
2023-03-20T12:49:55.939Z,79.82
2023-03-20T12:50:55.901Z,79.93
2023-03-20T12:51:55.906Z,80.17